createdAt,value
2022-08-29T00:00:31.080Z,85.91
2022-08-29T00:01:31.071Z,86.58
2022-08-29T00:02:31.135Z,86.29
2022-08-29T00:03:31.078Z,86.77
2022-08-29T00:04:31.731Z,86.29
2022-08-29T00:05:31.058Z,86.29
2022-08-29T00:06:31.079Z,86.48
2022-08-29T00:07:31.043Z,86.29
2022-08-29T00:08:31.040Z,86.58
2022-08-29T00:09:31.060Z,86.58
2022-08-29T00:10:31.065Z,86.96
2022-08-29T00:11:31.047Z,86.19
2022-08-29T00:12:31.042Z,86.68
2022-08-29T00:13:31.071Z,86.38
2022-08-29T00:14:31.024Z,87.54
2022-08-29T00:15:31.006Z,86.87
2022-08-29T00:16:31.067Z,87.15
2022-08-29T00:17:31.010Z,88.02
2022-08-29T00:18:30.996Z,87.35
2022-08-29T00:19:30.993Z,87.35
2022-08-29T00:20:34.641Z,88.11
2022-08-29T00:21:30.995Z,88.11
2022-08-29T00:22:31.007Z,87.63
2022-08-29T00:23:30.973Z,87.82
2022-08-29T00:24:30.959Z,87.92
2022-08-29T00:25:30.957Z,87.98
2022-08-29T00:26:31.422Z,87.88
2022-08-29T00:27:30.948Z,87.68
2022-08-29T00:28:30.965Z,88.17
2022-08-29T00:29:30.933Z,88.07
2022-08-29T00:30:30.945Z,87.98
2022-08-29T00:31:31.078Z,88.07
2022-08-29T00:32:30.943Z,87.78
2022-08-29T00:33:30.942Z,87.59
2022-08-29T00:34:30.915Z,87.59
2022-08-29T00:35:30.977Z,88.74
2022-08-29T00:36:30.906Z,87.78
2022-08-29T00:37:30.894Z,88.65
2022-08-29T00:38:30.889Z,88.35
2022-08-29T00:39:32.898Z,88.55
2022-08-29T00:40:30.957Z,88.35
2022-08-29T00:41:30.889Z,88.45
2022-08-29T00:42:30.873Z,88.55
2022-08-29T00:43:30.895Z,88.55
2022-08-29T00:44:30.884Z,88.84
2022-08-29T00:45:30.909Z,88.55
2022-08-29T00:46:30.874Z,88.84
2022-08-29T00:47:30.870Z,88.26
2022-08-29T00:48:30.854Z,88.17
2022-08-29T00:49:30.836Z,88.65
2022-08-29T00:50:30.844Z,88.26
2022-08-29T00:51:30.833Z,88.31
2022-08-29T00:52:30.816Z,88.51
2022-08-29T00:53:30.818Z,89.08
2022-08-29T00:54:30.823Z,89.03
2022-08-29T00:55:30.805Z,88.70
2022-08-29T00:56:30.806Z,88.84
2022-08-29T00:57:30.791Z,88.55
2022-08-29T00:58:30.788Z,88.84
2022-08-29T00:59:30.817Z,88.74
2022-08-29T01:00:30.803Z,88.45
2022-08-29T01:01:30.899Z,88.45
2022-08-29T01:02:30.807Z,88.45
2022-08-29T01:03:30.783Z,88.45
2022-08-29T01:04:30.789Z,88.35
2022-08-29T01:05:30.772Z,88.35
2022-08-29T01:06:30.749Z,88.84
2022-08-29T01:07:30.763Z,88.35
2022-08-29T01:08:30.736Z,89.12
2022-08-29T01:09:30.753Z,89.12
2022-08-29T01:10:30.755Z,88.93
2022-08-29T01:11:30.720Z,88.93
2022-08-29T01:12:30.730Z,88.65
2022-08-29T01:13:30.738Z,88.35
2022-08-29T01:14:30.700Z,89.12
2022-08-29T01:15:30.714Z,89.22
2022-08-29T01:16:30.798Z,89.22
2022-08-29T01:17:30.696Z,88.93
2022-08-29T01:18:30.692Z,89.03
2022-08-29T01:19:30.717Z,89.37
2022-08-29T01:20:30.679Z,89.18
2022-08-29T01:21:30.680Z,89.75
2022-08-29T01:22:30.670Z,90.04
2022-08-29T01:23:30.674Z,90.04
2022-08-29T01:24:30.651Z,89.85
2022-08-29T01:25:30.672Z,90.33
2022-08-29T01:26:30.665Z,90.52
2022-08-29T01:27:30.659Z,90.23
2022-08-29T01:28:30.652Z,90.71
2022-08-29T01:29:30.624Z,90.42
2022-08-29T01:30:30.640Z,90.23
2022-08-29T01:31:38.631Z,90.04
2022-08-29T01:32:30.651Z,91.19
2022-08-29T01:33:30.605Z,90.61
2022-08-29T01:34:30.625Z,90.61
2022-08-29T01:35:30.626Z,90.71
2022-08-29T01:36:30.589Z,91.14
2022-08-29T01:37:30.579Z,90.61
2022-08-29T01:38:30.580Z,90.42
2022-08-29T01:39:30.602Z,90.81
2022-08-29T01:40:30.637Z,90.90
2022-08-29T01:41:30.558Z,90.81
2022-08-29T01:42:32.321Z,90.61
2022-08-29T01:43:30.548Z,91.14
2022-08-29T01:44:30.549Z,90.57
2022-08-29T01:45:30.604Z,90.95
2022-08-29T01:46:30.538Z,90.86
2022-08-29T01:47:30.565Z,91.34
2022-08-29T01:48:30.547Z,90.95
2022-08-29T01:49:30.519Z,90.76
2022-08-29T01:50:30.540Z,91.05
2022-08-29T01:51:30.527Z,91.72
2022-08-29T01:52:30.528Z,91.43
2022-08-29T01:53:30.505Z,91.53
2022-08-29T01:54:30.486Z,91.34
2022-08-29T01:55:30.491Z,91.72
2022-08-29T01:56:30.491Z,91.43
2022-08-29T01:57:30.483Z,91.43
2022-08-29T01:58:30.481Z,91.24
2022-08-29T01:59:30.474Z,91.34
2022-08-29T02:00:30.457Z,91.53
2022-08-29T02:01:30.513Z,91.43
2022-08-29T02:02:30.591Z,91.43
2022-08-29T02:03:30.440Z,91.14
2022-08-29T02:04:30.462Z,91.43
2022-08-29T02:05:30.437Z,91.14
2022-08-29T02:06:30.459Z,91.43
2022-08-29T02:07:30.416Z,91.63
2022-08-29T02:08:30.449Z,91.63
2022-08-29T02:09:30.405Z,92.10
2022-08-29T02:10:30.425Z,91.82
2022-08-29T02:11:30.397Z,91.91
2022-08-29T02:12:30.397Z,92.20
2022-08-29T02:13:30.425Z,92.10
2022-08-29T02:14:30.404Z,91.34
2022-08-29T02:15:30.384Z,92.10
2022-08-29T02:16:30.410Z,91.34
2022-08-29T02:17:30.375Z,91.63
2022-08-29T02:18:30.375Z,92.01
2022-08-29T02:19:30.360Z,92.68
2022-08-29T02:20:30.370Z,92.49
2022-08-29T02:21:30.370Z,92.35
2022-08-29T02:22:30.333Z,92.10
2022-08-29T02:23:31.338Z,92.58
2022-08-29T02:24:30.327Z,92.35
2022-08-29T02:25:30.316Z,93.02
2022-08-29T02:26:30.315Z,92.44
2022-08-29T02:27:30.349Z,93.11
2022-08-29T02:28:30.294Z,92.58
2022-08-29T02:29:31.958Z,92.25
2022-08-29T02:30:30.287Z,92.73
2022-08-29T02:31:30.391Z,92.73
2022-08-29T02:32:30.281Z,92.39
2022-08-29T02:33:30.269Z,92.92
2022-08-29T02:34:30.270Z,92.92
2022-08-29T02:35:33.471Z,93.49
2022-08-29T02:36:30.281Z,93.02
2022-08-29T02:37:30.242Z,92.92
2022-08-29T02:38:30.237Z,93.30
2022-08-29T02:39:30.269Z,93.88
2022-08-29T02:40:31.627Z,94.35
2022-08-29T02:41:30.230Z,94.45
2022-08-29T02:42:30.261Z,95.12
2022-08-29T02:43:30.253Z,95.12
2022-08-29T02:44:30.216Z,95.12
2022-08-29T02:45:30.201Z,95.12
2022-08-29T02:46:30.257Z,94.64
2022-08-29T02:47:30.213Z,94.55
2022-08-29T02:48:30.228Z,94.26
2022-08-29T02:49:30.374Z,93.78
2022-08-29T02:50:30.175Z,93.98
2022-08-29T02:51:30.165Z,93.69
2022-08-29T02:52:30.731Z,94.35
2022-08-29T02:53:30.170Z,94.26
2022-08-29T02:54:30.156Z,94.55
2022-08-29T02:55:30.176Z,94.55
2022-08-29T02:56:30.154Z,94.35
2022-08-29T02:57:30.143Z,94.45
2022-08-29T02:58:30.125Z,94.64
2022-08-29T02:59:30.131Z,94.45
2022-08-29T03:00:30.147Z,94.55
2022-08-29T03:01:30.121Z,95.12
2022-08-29T03:02:30.119Z,95.41
2022-08-29T03:03:30.138Z,95.12
2022-08-29T03:04:30.091Z,95.41
2022-08-29T03:05:30.113Z,95.03
2022-08-29T03:06:30.081Z,95.22
2022-08-29T03:07:30.077Z,95.60
2022-08-29T03:08:30.085Z,95.60
2022-08-29T03:09:30.062Z,95.12
2022-08-29T03:10:30.082Z,95.31
2022-08-29T03:11:30.056Z,95.51
2022-08-29T03:12:30.055Z,95.51
2022-08-29T03:13:30.046Z,94.93
2022-08-29T03:14:30.031Z,94.93
2022-08-29T03:15:30.037Z,95.12
2022-08-29T03:16:30.100Z,95.31
2022-08-29T03:17:30.022Z,95.70
2022-08-29T03:18:30.012Z,95.70
2022-08-29T03:19:30.009Z,95.70
2022-08-29T03:20:30.037Z,95.51
2022-08-29T03:21:30.000Z,95.12
2022-08-29T03:22:30.005Z,95.70
2022-08-29T03:23:30.013Z,95.79
2022-08-29T03:24:29.992Z,95.79
2022-08-29T03:25:30.006Z,95.65
2022-08-29T03:26:29.982Z,95.75
2022-08-29T03:27:29.958Z,96.22
2022-08-29T03:28:29.958Z,96.13
2022-08-29T03:29:29.981Z,96.13
2022-08-29T03:30:29.962Z,96.51
2022-08-29T03:31:30.076Z,96.51
2022-08-29T03:32:29.960Z,96.42
2022-08-29T03:33:29.930Z,96.18
2022-08-29T03:34:29.938Z,96.13
2022-08-29T03:35:29.937Z,96.13
2022-08-29T03:36:29.901Z,96.51
2022-08-29T03:37:29.925Z,96.61
2022-08-29T03:38:29.904Z,96.61
2022-08-29T03:39:29.905Z,96.32
2022-08-29T03:40:29.915Z,96.80
2022-08-29T03:41:29.889Z,96.89
2022-08-29T03:42:29.890Z,96.80
2022-08-29T03:43:29.867Z,96.42
2022-08-29T03:44:29.893Z,96.42
2022-08-29T03:45:29.870Z,96.32
2022-08-29T03:46:29.886Z,96.56
2022-08-29T03:47:29.865Z,96.51
2022-08-29T03:48:29.863Z,96.47
2022-08-29T03:49:29.837Z,96.47
2022-08-29T03:50:29.876Z,96.37
2022-08-29T03:51:29.838Z,96.18
2022-08-29T03:52:29.827Z,95.98
2022-08-29T03:53:30.821Z,96.18
2022-08-29T03:54:29.819Z,96.51
2022-08-29T03:55:29.831Z,96.66
2022-08-29T03:56:29.791Z,96.13
2022-08-29T03:57:30.379Z,96.42
2022-08-29T03:58:29.805Z,96.51
2022-08-29T03:59:29.781Z,96.32
2022-08-29T04:00:29.771Z,96.42
2022-08-29T04:01:29.858Z,97.09
2022-08-29T04:02:29.846Z,97.71
2022-08-29T04:03:31.498Z,98.00
2022-08-29T04:04:29.736Z,98.57
2022-08-29T04:05:29.752Z,98.19
2022-08-29T04:06:29.733Z,98.57
2022-08-29T04:07:29.728Z,99.15
2022-08-29T04:08:29.742Z,99.43
2022-08-29T04:09:29.725Z,99.33
2022-08-29T04:10:29.704Z,99.72
2022-08-29T04:11:29.703Z,99.99
2022-08-29T04:12:29.714Z,99.86
2022-08-29T04:13:29.686Z,99.96
2022-08-29T04:14:29.687Z,99.99
2022-08-29T04:15:29.693Z,99.62
2022-08-29T04:16:30.794Z,99.33
2022-08-29T04:17:29.678Z,99.62
2022-08-29T04:18:29.666Z,99.33
2022-08-29T04:19:29.651Z,99.33
2022-08-29T04:20:29.695Z,98.81
2022-08-29T04:21:29.687Z,98.24
2022-08-29T04:22:29.646Z,98.52
2022-08-29T04:23:29.635Z,98.81
2022-08-29T04:24:29.633Z,98.62
2022-08-29T04:25:32.918Z,98.62
2022-08-29T04:26:36.844Z,98.43
2022-08-29T04:27:29.611Z,98.71
2022-08-29T04:28:29.623Z,98.62
2022-08-29T04:29:29.595Z,99.29
2022-08-29T04:30:29.618Z,99.29
2022-08-29T04:31:29.640Z,99.29
2022-08-29T04:32:29.585Z,98.62
2022-08-29T04:33:29.577Z,98.81
2022-08-29T04:34:29.564Z,99.10
2022-08-29T04:35:29.592Z,99.05
2022-08-29T04:36:29.571Z,99.33
2022-08-29T04:37:29.546Z,99.05
2022-08-29T04:38:29.556Z,99.81
2022-08-29T04:39:29.531Z,99.91
2022-08-29T04:40:29.560Z,99.99
2022-08-29T04:41:29.560Z,99.99
2022-08-29T04:42:29.525Z,99.99
2022-08-29T04:43:29.539Z,99.99
2022-08-29T04:44:29.531Z,99.99
2022-08-29T04:45:29.538Z,99.58
2022-08-29T04:46:29.579Z,99.38
2022-08-29T04:47:29.508Z,99.48
2022-08-29T04:48:29.482Z,99.38
2022-08-29T04:49:29.483Z,99.10
2022-08-29T04:50:29.487Z,99.67
2022-08-29T04:51:29.477Z,99.58
2022-08-29T04:52:29.492Z,99.67
2022-08-29T04:53:29.484Z,99.58
2022-08-29T04:54:29.793Z,99.00
2022-08-29T04:55:29.493Z,99.48
2022-08-29T04:56:29.796Z,99.10
2022-08-29T04:57:29.437Z,99.38
2022-08-29T04:58:29.417Z,99.00
2022-08-29T04:59:29.419Z,99.38
2022-08-29T05:00:29.438Z,98.62
2022-08-29T05:01:29.466Z,98.81
2022-08-29T05:02:29.440Z,98.96
2022-08-29T05:03:29.412Z,98.86
2022-08-29T05:04:29.409Z,98.67
2022-08-29T05:05:29.386Z,98.81
2022-08-29T05:06:29.403Z,98.62
2022-08-29T05:07:29.387Z,98.62
2022-08-29T05:08:29.397Z,98.81
2022-08-29T05:09:29.383Z,98.62
2022-08-29T05:10:29.350Z,98.81
2022-08-29T05:11:29.375Z,98.81
2022-08-29T05:12:29.355Z,98.71
2022-08-29T05:13:29.348Z,98.96
2022-08-29T05:14:29.332Z,98.67
2022-08-29T05:15:29.369Z,98.62
2022-08-29T05:16:29.362Z,98.43
2022-08-29T05:17:29.332Z,98.62
2022-08-29T05:18:29.328Z,98.33
2022-08-29T05:19:29.297Z,99.00
2022-08-29T05:20:29.335Z,99.29
2022-08-29T05:21:29.297Z,99.29
2022-08-29T05:22:29.300Z,99.87
2022-08-29T05:23:29.298Z,99.38
2022-08-29T05:24:29.271Z,99.99
2022-08-29T05:25:29.275Z,99.99
2022-08-29T05:26:29.274Z,99.99
2022-08-29T05:27:29.250Z,99.96
2022-08-29T05:28:29.265Z,99.77
2022-08-29T05:29:29.264Z,99.58
2022-08-29T05:30:29.265Z,99.19
2022-08-29T05:31:29.291Z,99.38
2022-08-29T05:32:29.250Z,99.48
2022-08-29T05:33:29.235Z,99.29
2022-08-29T05:34:33.930Z,99.48
2022-08-29T05:35:29.208Z,99.67
2022-08-29T05:36:29.207Z,99.48
2022-08-29T05:37:29.208Z,99.19
2022-08-29T05:38:29.187Z,99.87
2022-08-29T05:39:29.198Z,99.48
2022-08-29T05:40:29.222Z,99.48
2022-08-29T05:41:29.187Z,99.10
2022-08-29T05:42:29.191Z,99.77
2022-08-29T05:43:29.154Z,99.10
2022-08-29T05:44:34.208Z,99.53
2022-08-29T05:45:29.157Z,99.67
2022-08-29T05:46:29.193Z,99.34
2022-08-29T05:47:29.178Z,99.82
2022-08-29T05:48:29.131Z,99.72
2022-08-29T05:49:29.141Z,99.43
2022-08-29T05:50:29.140Z,99.91
2022-08-29T05:51:29.126Z,99.53
2022-08-29T05:52:29.126Z,99.34
2022-08-29T05:53:29.136Z,98.86
2022-08-29T05:54:30.096Z,98.96
2022-08-29T05:55:29.108Z,99.05
2022-08-29T05:56:29.079Z,98.96
2022-08-29T05:57:29.105Z,99.05
2022-08-29T05:58:29.091Z,99.43
2022-08-29T05:59:29.082Z,99.24
2022-08-29T06:00:29.059Z,98.67
2022-08-29T06:01:29.085Z,99.34
2022-08-29T06:02:29.194Z,99.24
2022-08-29T06:03:29.233Z,99.43
2022-08-29T06:04:29.064Z,98.96
2022-08-29T06:05:29.040Z,98.52
2022-08-29T06:06:29.034Z,98.67
2022-08-29T06:07:29.035Z,98.57
2022-08-29T06:08:29.035Z,98.72
2022-08-29T06:09:29.030Z,98.86
2022-08-29T06:10:28.996Z,99.01
2022-08-29T06:11:29.024Z,98.72
2022-08-29T06:12:29.015Z,98.43
2022-08-29T06:13:29.016Z,98.91
2022-08-29T06:14:29.000Z,99.19
2022-08-29T06:15:29.080Z,98.76
2022-08-29T06:16:28.968Z,98.52
2022-08-29T06:17:29.018Z,98.52
2022-08-29T06:18:35.472Z,98.62
2022-08-29T06:19:28.956Z,98.81
2022-08-29T06:20:28.969Z,99.48
2022-08-29T06:21:28.932Z,99.10
2022-08-29T06:22:28.956Z,98.52
2022-08-29T06:23:28.928Z,98.91
2022-08-29T06:24:28.930Z,98.72
2022-08-29T06:25:39.647Z,98.43
2022-08-29T06:26:28.932Z,98.52
2022-08-29T06:27:28.921Z,98.52
2022-08-29T06:28:28.924Z,98.72
2022-08-29T06:29:28.920Z,98.43
2022-08-29T06:30:28.923Z,98.33
2022-08-29T06:31:28.934Z,98.81
2022-08-29T06:32:28.888Z,97.76
2022-08-29T06:33:28.883Z,97.76
2022-08-29T06:34:28.891Z,97.71
2022-08-29T06:35:28.874Z,97.52
2022-08-29T06:36:28.856Z,97.33
2022-08-29T06:37:28.844Z,97.04
2022-08-29T06:38:28.873Z,96.66
2022-08-29T06:39:28.909Z,96.56
2022-08-29T06:40:28.883Z,96.37
2022-08-29T06:41:28.855Z,96.75
2022-08-29T06:42:28.881Z,96.56
2022-08-29T06:43:28.837Z,96.56
2022-08-29T06:44:30.519Z,96.37
2022-08-29T06:45:28.811Z,96.47
2022-08-29T06:46:28.920Z,96.80
2022-08-29T06:47:28.811Z,96.42
2022-08-29T06:48:29.717Z,96.03
2022-08-29T06:49:28.817Z,96.03
2022-08-29T06:50:28.811Z,96.03
2022-08-29T06:51:28.813Z,95.46
2022-08-29T06:52:28.797Z,95.75
2022-08-29T06:53:32.215Z,95.75
2022-08-29T06:54:28.899Z,95.94
2022-08-29T06:55:28.790Z,95.55
2022-08-29T06:56:28.781Z,95.17
2022-08-29T06:57:28.788Z,94.49
2022-08-29T06:58:28.767Z,94.69
2022-08-29T06:59:28.766Z,94.45
2022-08-29T07:00:28.743Z,94.35
2022-08-29T07:01:28.771Z,93.49
2022-08-29T07:02:28.780Z,93.59
2022-08-29T07:03:28.726Z,93.59
2022-08-29T07:04:28.717Z,93.01
2022-08-29T07:05:28.742Z,93.10
2022-08-29T07:06:28.714Z,92.72
2022-08-29T07:07:28.753Z,92.72
2022-08-29T07:08:28.716Z,92.63
2022-08-29T07:09:28.707Z,92.72
2022-08-29T07:10:28.726Z,92.72
2022-08-29T07:11:28.701Z,93.15
2022-08-29T07:12:28.713Z,92.19
2022-08-29T07:13:28.749Z,91.81
2022-08-29T07:14:28.698Z,90.99
2022-08-29T07:15:28.712Z,91.04
2022-08-29T07:16:28.661Z,91.28
2022-08-29T07:17:28.711Z,91.28
2022-08-29T07:18:28.648Z,90.51
2022-08-29T07:19:28.663Z,89.83
2022-08-29T07:20:28.658Z,89.83
2022-08-29T07:21:28.668Z,90.31
2022-08-29T07:22:28.651Z,90.12
2022-08-29T07:23:28.640Z,89.98
2022-08-29T07:24:28.632Z,89.30
2022-08-29T07:25:28.631Z,88.53
2022-08-29T07:26:28.676Z,87.86
2022-08-29T07:27:28.621Z,87.33
2022-08-29T07:28:28.644Z,86.94
2022-08-29T07:29:28.601Z,86.69
2022-08-29T07:30:28.679Z,85.93
2022-08-29T07:31:30.978Z,85.74
2022-08-29T07:32:28.604Z,86.12
2022-08-29T07:33:28.627Z,86.22
2022-08-29T07:34:28.582Z,86.02
2022-08-29T07:35:30.830Z,85.83
2022-08-29T07:36:28.625Z,85.83
2022-08-29T07:37:28.639Z,86.31
2022-08-29T07:38:28.579Z,85.74
2022-08-29T07:39:28.584Z,85.74
2022-08-29T07:40:28.645Z,85.93
2022-08-29T07:41:28.575Z,85.93
2022-08-29T07:42:28.568Z,85.54
2022-08-29T07:43:28.708Z,84.67
2022-08-29T07:44:32.174Z,85.44
2022-08-29T07:45:28.603Z,85.06
2022-08-29T07:46:28.606Z,85.06
2022-08-29T07:47:28.560Z,84.53
2022-08-29T07:48:28.607Z,84.62
2022-08-29T07:49:40.167Z,83.95
2022-08-29T07:50:28.549Z,84.53
2022-08-29T07:51:28.566Z,83.47
2022-08-29T07:52:28.546Z,83.28
2022-08-29T07:53:28.548Z,83.08
2022-08-29T07:54:28.594Z,82.85
2022-08-29T07:55:28.591Z,83.28
2022-08-29T07:56:28.574Z,83.56
2022-08-29T07:57:28.537Z,83.08
2022-08-29T07:58:28.571Z,82.26
2022-08-29T07:59:28.576Z,81.58
2022-08-29T08:00:28.565Z,80.81
2022-08-29T08:01:28.614Z,80.91
2022-08-29T08:02:28.599Z,81.68
2022-08-29T08:03:28.575Z,80.43
2022-08-29T08:04:28.542Z,80.52
2022-08-29T08:05:28.565Z,81.48
2022-08-29T08:06:28.534Z,80.52
2022-08-29T08:07:29.621Z,80.58
2022-08-29T08:08:28.555Z,81.54
2022-08-29T08:09:28.532Z,81.96
2022-08-29T08:10:28.583Z,81.48
2022-08-29T08:11:28.562Z,82.06
2022-08-29T08:12:28.530Z,80.66
2022-08-29T08:13:28.594Z,79.89
2022-08-29T08:14:34.725Z,79.79
2022-08-29T08:15:28.559Z,80.27
2022-08-29T08:16:28.562Z,79.89
2022-08-29T08:17:28.559Z,79.98
2022-08-29T08:18:28.536Z,79.74
2022-08-29T08:19:28.532Z,79.74
2022-08-29T08:20:28.560Z,79.16
2022-08-29T08:21:28.572Z,79.35
2022-08-29T08:22:28.576Z,79.16
2022-08-29T08:23:28.546Z,78.58
2022-08-29T08:24:28.546Z,79.19
2022-08-29T08:25:28.583Z,79.49
2022-08-29T08:26:28.568Z,78.61
2022-08-29T08:27:28.553Z,78.52
2022-08-29T08:28:28.556Z,78.27
2022-08-29T08:29:28.549Z,78.42
2022-08-29T08:30:30.804Z,78.52
2022-08-29T08:31:28.607Z,78.71
2022-08-29T08:32:32.362Z,79.19
2022-08-29T08:33:28.542Z,78.52
2022-08-29T08:34:28.571Z,78.42
2022-08-29T08:35:28.575Z,77.36
2022-08-29T08:36:28.698Z,77.88
2022-08-29T08:37:28.566Z,77.69
2022-08-29T08:38:28.568Z,77.30
2022-08-29T08:39:28.557Z,78.36
2022-08-29T08:40:28.619Z,77.50
2022-08-29T08:41:28.603Z,77.92
2022-08-29T08:42:28.561Z,77.57
2022-08-29T08:43:28.575Z,76.51
2022-08-29T08:44:28.611Z,75.54
2022-08-29T08:45:28.588Z,74.48
2022-08-29T08:46:28.751Z,75.35
2022-08-29T08:47:28.602Z,75.93
2022-08-29T08:48:28.627Z,75.74
2022-08-29T08:49:28.576Z,75.16
2022-08-29T08:50:28.596Z,75.06
2022-08-29T08:51:28.618Z,75.06
2022-08-29T08:52:28.613Z,75.58
2022-08-29T08:53:28.595Z,75.00
2022-08-29T08:54:28.615Z,74.90
2022-08-29T08:55:28.616Z,74.32
2022-08-29T08:56:28.685Z,74.13
2022-08-29T08:57:28.622Z,74.07
2022-08-29T08:58:29.290Z,73.65
2022-08-29T08:59:28.635Z,73.10
2022-08-29T09:00:28.624Z,72.72
2022-08-29T09:01:28.720Z,72.62
2022-08-29T09:02:28.735Z,73.10
2022-08-29T09:03:28.638Z,72.72
2022-08-29T09:04:28.627Z,71.98
2022-08-29T09:05:28.628Z,72.46
2022-08-29T09:06:28.664Z,71.30
2022-08-29T09:07:28.643Z,71.40
2022-08-29T09:08:28.636Z,70.86
2022-08-29T09:09:28.694Z,71.53
2022-08-29T09:10:28.653Z,71.34
2022-08-29T09:11:28.665Z,70.40
2022-08-29T09:12:28.655Z,70.50
2022-08-29T09:13:28.671Z,70.40
2022-08-29T09:14:28.683Z,70.21
2022-08-29T09:15:32.599Z,69.67
2022-08-29T09:16:28.689Z,69.08
2022-08-29T09:17:28.674Z,69.57
2022-08-29T09:18:28.678Z,68.89
2022-08-29T09:19:28.715Z,68.60
2022-08-29T09:20:28.687Z,68.40
2022-08-29T09:21:42.986Z,68.12
2022-08-29T09:22:32.840Z,68.21
2022-08-29T09:23:28.714Z,68.40
2022-08-29T09:24:28.708Z,68.40
2022-08-29T09:25:28.705Z,68.70
2022-08-29T09:26:28.719Z,68.89
2022-08-29T09:27:28.730Z,69.18
2022-08-29T09:28:30.755Z,68.70
2022-08-29T09:29:28.730Z,68.30
2022-08-29T09:30:28.737Z,68.60
2022-08-29T09:31:28.821Z,68.40
2022-08-29T09:32:28.751Z,67.72
2022-08-29T09:33:28.753Z,67.69
2022-08-29T09:34:29.227Z,68.30
2022-08-29T09:35:28.772Z,68.30
2022-08-29T09:36:28.771Z,68.21
2022-08-29T09:37:28.773Z,67.85
2022-08-29T09:38:28.782Z,67.27
2022-08-29T09:39:28.786Z,67.57
2022-08-29T09:40:28.836Z,66.95
2022-08-29T09:41:30.550Z,68.12
2022-08-29T09:42:28.799Z,68.92
2022-08-29T09:43:28.825Z,68.18
2022-08-29T09:44:28.844Z,66.92
2022-08-29T09:45:28.964Z,66.02
2022-08-29T09:46:28.947Z,66.30
2022-08-29T09:47:28.834Z,65.82
2022-08-29T09:48:33.339Z,65.72
2022-08-29T09:49:28.859Z,65.43
2022-08-29T09:50:28.851Z,66.20
2022-08-29T09:51:28.853Z,66.02
2022-08-29T09:52:28.880Z,65.37
2022-08-29T09:53:29.209Z,65.59
2022-08-29T09:54:28.906Z,64.82
2022-08-29T09:55:28.878Z,64.82
2022-08-29T09:56:28.897Z,64.72
2022-08-29T09:57:28.907Z,64.56
2022-08-29T09:58:28.912Z,63.88
2022-08-29T09:59:28.933Z,63.68
2022-08-29T10:00:28.914Z,63.85
2022-08-29T10:01:29.031Z,63.56
2022-08-29T10:02:28.991Z,63.68
2022-08-29T10:03:28.950Z,62.91
2022-08-29T10:04:28.947Z,63.04
2022-08-29T10:05:28.963Z,62.65
2022-08-29T10:06:28.967Z,62.19
2022-08-29T10:07:28.954Z,61.32
2022-08-29T10:08:28.976Z,60.90
2022-08-29T10:09:28.989Z,61.22
2022-08-29T10:10:28.987Z,61.32
2022-08-29T10:11:29.013Z,60.54
2022-08-29T10:12:29.011Z,61.71
2022-08-29T10:13:30.099Z,60.38
2022-08-29T10:14:29.039Z,60.38
2022-08-29T10:15:49.510Z,60.57
2022-08-29T10:16:29.069Z,59.89
2022-08-29T10:17:29.031Z,59.53
2022-08-29T10:18:29.041Z,59.41
2022-08-29T10:19:34.327Z,59.53
2022-08-29T10:20:29.057Z,58.72
2022-08-29T10:21:29.063Z,59.47
2022-08-29T10:22:29.067Z,59.54
2022-08-29T10:23:29.073Z,60.93
2022-08-29T10:24:29.077Z,60.44
2022-08-29T10:25:29.075Z,60.25
2022-08-29T10:26:29.148Z,58.89
2022-08-29T10:27:29.111Z,58.50
2022-08-29T10:28:29.126Z,58.21
2022-08-29T10:29:31.726Z,59.41
2022-08-29T10:30:29.135Z,58.40
2022-08-29T10:31:29.172Z,59.11
2022-08-29T10:32:29.147Z,59.59
2022-08-29T10:33:29.135Z,58.33
2022-08-29T10:34:29.153Z,58.56
2022-08-29T10:35:29.166Z,58.85
2022-08-29T10:36:29.153Z,58.07
2022-08-29T10:37:29.187Z,58.69
2022-08-29T10:38:29.179Z,58.39
2022-08-29T10:39:29.215Z,57.81
2022-08-29T10:40:29.236Z,57.84
2022-08-29T10:41:29.195Z,56.76
2022-08-29T10:42:29.199Z,57.35
2022-08-29T10:43:29.217Z,56.37
2022-08-29T10:44:29.215Z,54.60
2022-08-29T10:45:29.293Z,56.12
2022-08-29T10:46:29.227Z,57.00
2022-08-29T10:47:29.276Z,57.49
2022-08-29T10:48:29.267Z,57.51
2022-08-29T10:49:29.252Z,56.93
2022-08-29T10:50:45.313Z,57.32
2022-08-29T10:51:29.291Z,57.03
2022-08-29T10:52:29.279Z,57.90
2022-08-29T10:53:29.289Z,57.07
2022-08-29T10:54:29.301Z,58.28
2022-08-29T10:55:29.309Z,58.67
2022-08-29T10:56:29.327Z,57.89
2022-08-29T10:57:29.311Z,58.59
2022-08-29T10:58:29.313Z,57.95
2022-08-29T10:59:29.327Z,58.43
2022-08-29T11:00:29.369Z,58.17
2022-08-29T11:01:29.540Z,57.42
2022-08-29T11:02:29.351Z,57.71
2022-08-29T11:03:29.386Z,57.32
2022-08-29T11:04:29.406Z,56.51
2022-08-29T11:05:29.380Z,57.46
2022-08-29T11:06:29.428Z,58.23
2022-08-29T11:07:29.421Z,57.97
2022-08-29T11:08:29.397Z,57.97
2022-08-29T11:09:29.402Z,57.39
2022-08-29T11:10:29.405Z,57.51
2022-08-29T11:11:29.406Z,57.51
2022-08-29T11:12:29.418Z,56.54
2022-08-29T11:13:29.458Z,57.64
2022-08-29T11:14:29.453Z,57.54
2022-08-29T11:15:29.461Z,57.06
2022-08-29T11:16:29.517Z,55.62
2022-08-29T11:17:29.455Z,55.82
2022-08-29T11:18:29.470Z,55.69
2022-08-29T11:19:29.465Z,56.18
2022-08-29T11:20:29.507Z,56.79
2022-08-29T11:21:29.509Z,56.89
2022-08-29T11:22:29.490Z,56.70
2022-08-29T11:23:30.368Z,56.70
2022-08-29T11:24:34.186Z,56.67
2022-08-29T11:25:29.512Z,56.47
2022-08-29T11:26:29.519Z,56.76
2022-08-29T11:27:29.545Z,56.74
2022-08-29T11:28:29.550Z,57.22
2022-08-29T11:29:29.578Z,57.49
2022-08-29T11:30:29.555Z,57.68
2022-08-29T11:31:29.594Z,57.39
2022-08-29T11:32:29.584Z,57.68
2022-08-29T11:33:29.576Z,57.97
2022-08-29T11:34:29.615Z,58.04
2022-08-29T11:35:29.605Z,58.14
2022-08-29T11:36:29.609Z,58.43
2022-08-29T11:37:29.601Z,59.01
2022-08-29T11:38:29.608Z,59.01
2022-08-29T11:39:29.626Z,58.72
2022-08-29T11:41:30.252Z,58.72
2022-08-29T11:43:29.664Z,58.79
2022-08-29T11:44:29.675Z,59.47
2022-08-29T11:45:35.744Z,60.15
2022-08-29T11:46:29.737Z,59.54
2022-08-29T11:47:29.675Z,60.41
2022-08-29T11:48:29.678Z,60.80
2022-08-29T11:49:29.689Z,60.74
2022-08-29T11:50:29.676Z,60.74
2022-08-29T11:51:29.685Z,60.25
2022-08-29T11:52:29.709Z,60.25
2022-08-29T11:53:29.741Z,60.15
2022-08-29T11:54:29.733Z,59.34
2022-08-29T11:55:29.741Z,60.41
2022-08-29T11:56:29.712Z,60.41
2022-08-29T11:57:29.715Z,60.41
2022-08-29T11:58:29.729Z,60.22
2022-08-29T11:59:29.757Z,60.71
2022-08-29T12:00:29.732Z,60.28
2022-08-29T12:01:29.748Z,60.58
2022-08-29T12:02:29.730Z,60.68
2022-08-29T12:03:30.308Z,60.77
2022-08-29T12:04:29.859Z,60.28
2022-08-29T12:05:29.741Z,60.64
2022-08-29T12:06:29.752Z,61.94
2022-08-29T12:07:29.756Z,62.42
2022-08-29T12:08:36.889Z,62.23
2022-08-29T12:09:29.756Z,61.16
2022-08-29T12:10:29.762Z,60.84
2022-08-29T12:11:29.768Z,61.81
2022-08-29T12:12:29.789Z,62.88
2022-08-29T12:13:29.788Z,62.65
2022-08-29T12:14:32.223Z,62.29
2022-08-29T12:15:29.780Z,61.78
2022-08-29T12:16:29.819Z,62.68
2022-08-29T12:17:51.266Z,62.29
2022-08-29T12:18:33.386Z,61.81
2022-08-29T12:19:29.795Z,61.81
2022-08-29T12:20:29.812Z,62.39
2022-08-29T12:21:29.806Z,62.04
2022-08-29T12:22:29.863Z,61.16
2022-08-29T12:23:29.798Z,61.07
2022-08-29T12:24:29.800Z,60.28
2022-08-29T12:25:29.821Z,60.19
2022-08-29T12:26:29.813Z,60.38
2022-08-29T12:27:29.814Z,60.77
2022-08-29T12:28:29.811Z,60.87
2022-08-29T12:29:29.814Z,61.45
2022-08-29T12:30:29.847Z,61.19
2022-08-29T12:31:29.886Z,60.80
2022-08-29T12:32:32.158Z,60.31
2022-08-29T12:33:29.822Z,59.92
2022-08-29T12:34:29.838Z,60.71
2022-08-29T12:35:29.841Z,60.51
2022-08-29T12:36:29.846Z,59.34
2022-08-29T12:37:29.830Z,60.02
2022-08-29T12:38:29.839Z,60.41
2022-08-29T12:39:29.829Z,60.12
2022-08-29T12:40:29.897Z,59.92
2022-08-29T12:41:29.848Z,60.22
2022-08-29T12:42:29.853Z,60.51
2022-08-29T12:43:29.847Z,60.12
2022-08-29T12:44:29.879Z,60.12
2022-08-29T12:45:29.869Z,60.15
2022-08-29T12:46:29.908Z,59.44
2022-08-29T12:47:29.853Z,59.44
2022-08-29T12:48:29.859Z,60.41
2022-08-29T12:49:29.973Z,60.22
2022-08-29T12:50:29.886Z,60.41
2022-08-29T12:51:29.860Z,60.12
2022-08-29T12:52:29.892Z,60.51
2022-08-29T12:53:29.871Z,59.95
2022-08-29T12:54:29.868Z,59.28